MSC Lea — 9HA2639 — position and weather

sailwx.info

Track history (hours):
 
Tides and Currents Weather Stations Pressure Air Temp Water Temp Dewpoint Dewpoint Depression Visibility Wind Speed Wind Dir Waves Ship Positions

MSC Lea

Last reported at 2015-Jul-04 05:19 UTC. Time now 2015-Jul-04 10:05 UTC.
Position N 44°25' E 037°24'.

Length 217 m; draft 10.5 m.

Type: Ship (hazmat cat A). MMSI: 215101000.

Date/timePositionNaut miles runAvg speedWind from/ knotsBaromVisibWave heightAir tempDewpointWater temp
2015-Jul-04 05:19N 44°25' E 037°24'1013.6
2015-Jul-04 04:34N 44°30' E 037°36'1312.8
2015-Jul-04 03:34N 44°39' E 037°50'5 5.4
2015-Jul-04 02:33N 44°43' E 037°47'0 0.1
2015-Jul-04 01:33N 44°44' E 037°47'0 0.0
2015-Jul-04 00:31N 44°44' E 037°47'0 0.0
2015-Jul-03 23:32N 44°44' E 037°47'0 0.0
2015-Jul-03 22:29N 44°44' E 037°47'0 0.0
2015-Jul-03 21:33N 44°44' E 037°47'0 0.0
2015-Jul-03 20:31N 44°44' E 037°47'0 0.0
2015-Jul-03 19:31N 44°44' E 037°47'0 0.0
2015-Jul-03 18:32N 44°44' E 037°47'0 0.0
2015-Jul-03 17:33N 44°44' E 037°47'0 0.0
2015-Jul-03 16:33N 44°44' E 037°47'0 0.0
2015-Jul-03 15:31N 44°44' E 037°47'0 0.0
2015-Jul-03 14:32N 44°44' E 037°47'0 0.0
2015-Jul-03 13:32N 44°44' E 037°47'0 0.0
2015-Jul-03 12:33N 44°44' E 037°47'0 0.0
2015-Jul-03 11:31N 44°44' E 037°47'0 0.0
2015-Jul-03 10:31N 44°44' E 037°47'0 0.0
2015-Jul-03 09:32N 44°44' E 037°47'0 0.0
2015-Jul-03 08:33N 44°44' E 037°47'0 0.0
2015-Jul-03 07:33N 44°44' E 037°47'0 0.0
2015-Jul-03 06:31N 44°44' E 037°47'0 0.0
2015-Jul-03 05:32N 44°44' E 037°47'0 0.0
2015-Jul-03 04:32N 44°44' E 037°47'0 0.0
2015-Jul-03 03:33N 44°44' E 037°47'0 0.0
2015-Jul-03 02:31N 44°44' E 037°47'0 0.0
2015-Jul-03 01:32N 44°44' E 037°47'0 0.0
2015-Jul-03 00:32N 44°44' E 037°47'0 0.0
2015-Jul-02 23:33N 44°44' E 037°47'0 0.0
2015-Jul-02 22:34N 44°44' E 037°47'0 0.0
2015-Jul-02 21:31N 44°44' E 037°47'0 0.0
2015-Jul-02 20:32N 44°44' E 037°47'0 0.0
2015-Jul-02 19:33N 44°44' E 037°47'0 0.0
2015-Jul-02 18:33N 44°44' E 037°47'0 0.0
2015-Jul-02 17:31N 44°44' E 037°47'0 0.0
2015-Jul-02 16:32N 44°44' E 037°47'0 0.0
2015-Jul-02 15:32N 44°44' E 037°47'0 0.0
2015-Jul-02 14:27N 44°44' E 037°47'0 0.0
2015-Jul-02 13:31N 44°44' E 037°47'0 0.0
2015-Jul-02 12:28N 44°44' E 037°47'0 0.0
2015-Jul-02 11:32N 44°44' E 037°47'0 0.0
2015-Jul-02 10:33N 44°44' E 037°47'3 3.4
2015-Jul-02 09:33N 44°41' E 037°50'6 6.1
2015-Jul-02 08:33N 44°35' E 037°51'1212.0
2015-Jul-02 07:33N 44°27' E 037°39'1313.0
2015-Jul-02 06:33N 44°21' E 037°22'14212.9
2015-Jul-01 19:33N 43°16' E 034°27'1312.7
2015-Jul-01 18:33N 43°11' E 034°12'26513.0
2015-Jun-30 22:15N 41°02' E 028°60'6 8.7
2015-Jun-30 21:33N 40°56' E 028°58'8 8.1
2015-Jun-30 20:31N 40°50' E 028°50'6 5.3
2015-Jun-30 19:27N 40°45' E 028°47'1 1.3
2015-Jun-30 18:33N 40°44' E 028°47'1 1.2
2015-Jun-30 17:33N 40°45' E 028°48'2 0.8
2015-Jun-30 15:33N 40°46' E 028°46'23612.4
2015-Jun-29 20:33N 37°32' E 025°52'1817.5
2015-Jun-29 19:33N 37°16' E 026°01'1817.7
2015-Jun-29 18:32N 36°59' E 026°11'1717.5
2015-Jun-29 17:33N 36°47' E 026°25'1414.2
2015-Jun-29 16:33N 36°37' E 026°37'1010.2
2015-Jun-29 15:33N 36°29' E 026°46'1312.7
2015-Jun-29 14:33N 36°19' E 026°56'  
2015-Jun-27 06:24N 31°56' E 030°37'1213.4
2015-Jun-27 05:31N 31°57' E 030°51'2713.4
2015-Jun-27 03:33N 31°59' E 031°22'1313.4
2015-Jun-27 02:33N 31°60' E 031°38'1613.7
2015-Jun-27 01:23N 32°01' E 031°56'1413.8
2015-Jun-27 00:24N 32°02' E 032°12'1213.9
2015-Jun-26 23:30N 32°02' E 032°27'2914.1
2015-Jun-26 21:26N 32°04' E 033°01'1214.1
2015-Jun-26 20:33N 32°05' E 033°16'4313.8
2015-Jun-26 17:26N 32°01' E 034°07'42 2.4
2015-Jun-26 00:04N 31°54' E 033°18'1720.9
2015-Jun-25 23:15N 31°51' E 032°59'1521.1
2015-Jun-25 22:33N 31°48' E 032°42'2421.2
2015-Jun-25 21:26N 31°46' E 032°14'1820.6
2015-Jun-25 20:34N 31°41' E 031°54'39010.1
2015-Jun-24 06:07N 36°33' E 026°41'  
Track history (hours):
 
Tides and Currents Weather Stations Pressure Air Temp Water Temp Dewpoint Dewpoint Depression Visibility Wind Speed Wind Dir Waves Ship Positions

MSC Lea

Last reported at 2015-Jul-04 05:19 UTC. Time now 2015-Jul-04 10:05 UTC.
Position N 44°25' E 037°24'.

Length 217 m; draft 10.5 m.

Type: Ship (hazmat cat A). MMSI: 215101000.

Date/timePositionNaut miles runAvg speedWind from/ knotsBaromVisibWave heightAir tempDewpointWater temp
2015-Jul-04 05:19N 44°25' E 037°24'1013.6
2015-Jul-04 04:34N 44°30' E 037°36'1312.8
2015-Jul-04 03:34N 44°39' E 037°50'5 5.4
2015-Jul-04 02:33N 44°43' E 037°47'0 0.1
2015-Jul-04 01:33N 44°44' E 037°47'0 0.0
2015-Jul-04 00:31N 44°44' E 037°47'0 0.0
2015-Jul-03 23:32N 44°44' E 037°47'0 0.0
2015-Jul-03 22:29N 44°44' E 037°47'0 0.0
2015-Jul-03 21:33N 44°44' E 037°47'0 0.0
2015-Jul-03 20:31N 44°44' E 037°47'0 0.0
2015-Jul-03 19:31N 44°44' E 037°47'0 0.0
2015-Jul-03 18:32N 44°44' E 037°47'0 0.0
2015-Jul-03 17:33N 44°44' E 037°47'0 0.0
2015-Jul-03 16:33N 44°44' E 037°47'0 0.0
2015-Jul-03 15:31N 44°44' E 037°47'0 0.0
2015-Jul-03 14:32N 44°44' E 037°47'0 0.0
2015-Jul-03 13:32N 44°44' E 037°47'0 0.0
2015-Jul-03 12:33N 44°44' E 037°47'0 0.0
2015-Jul-03 11:31N 44°44' E 037°47'0 0.0
2015-Jul-03 10:31N 44°44' E 037°47'0 0.0
2015-Jul-03 09:32N 44°44' E 037°47'0 0.0
2015-Jul-03 08:33N 44°44' E 037°47'0 0.0
2015-Jul-03 07:33N 44°44' E 037°47'0 0.0
2015-Jul-03 06:31N 44°44' E 037°47'0 0.0
2015-Jul-03 05:32N 44°44' E 037°47'0 0.0
2015-Jul-03 04:32N 44°44' E 037°47'0 0.0
2015-Jul-03 03:33N 44°44' E 037°47'0 0.0
2015-Jul-03 02:31N 44°44' E 037°47'0 0.0
2015-Jul-03 01:32N 44°44' E 037°47'0 0.0
2015-Jul-03 00:32N 44°44' E 037°47'0 0.0
2015-Jul-02 23:33N 44°44' E 037°47'0 0.0
2015-Jul-02 22:34N 44°44' E 037°47'0 0.0
2015-Jul-02 21:31N 44°44' E 037°47'0 0.0
2015-Jul-02 20:32N 44°44' E 037°47'0 0.0
2015-Jul-02 19:33N 44°44' E 037°47'0 0.0
2015-Jul-02 18:33N 44°44' E 037°47'0 0.0
2015-Jul-02 17:31N 44°44' E 037°47'0 0.0
2015-Jul-02 16:32N 44°44' E 037°47'0 0.0
2015-Jul-02 15:32N 44°44' E 037°47'0 0.0
2015-Jul-02 14:27N 44°44' E 037°47'0 0.0
2015-Jul-02 13:31N 44°44' E 037°47'0 0.0
2015-Jul-02 12:28N 44°44' E 037°47'0 0.0
2015-Jul-02 11:32N 44°44' E 037°47'0 0.0
2015-Jul-02 10:33N 44°44' E 037°47'3 3.4
2015-Jul-02 09:33N 44°41' E 037°50'6 6.1
2015-Jul-02 08:33N 44°35' E 037°51'1212.0
2015-Jul-02 07:33N 44°27' E 037°39'1313.0
2015-Jul-02 06:33N 44°21' E 037°22'14212.9
2015-Jul-01 19:33N 43°16' E 034°27'1312.7
2015-Jul-01 18:33N 43°11' E 034°12'26513.0
2015-Jun-30 22:15N 41°02' E 028°60'6 8.7
2015-Jun-30 21:33N 40°56' E 028°58'8 8.1
2015-Jun-30 20:31N 40°50' E 028°50'6 5.3
2015-Jun-30 19:27N 40°45' E 028°47'1 1.3
2015-Jun-30 18:33N 40°44' E 028°47'1 1.2
2015-Jun-30 17:33N 40°45' E 028°48'2 0.8
2015-Jun-30 15:33N 40°46' E 028°46'23612.4
2015-Jun-29 20:33N 37°32' E 025°52'1817.5
2015-Jun-29 19:33N 37°16' E 026°01'1817.7
2015-Jun-29 18:32N 36°59' E 026°11'1717.5
2015-Jun-29 17:33N 36°47' E 026°25'1414.2
2015-Jun-29 16:33N 36°37' E 026°37'1010.2
2015-Jun-29 15:33N 36°29' E 026°46'1312.7
2015-Jun-29 14:33N 36°19' E 026°56'  
2015-Jun-27 06:24N 31°56' E 030°37'1213.4
2015-Jun-27 05:31N 31°57' E 030°51'2713.4
2015-Jun-27 03:33N 31°59' E 031°22'1313.4
2015-Jun-27 02:33N 31°60' E 031°38'1613.7
2015-Jun-27 01:23N 32°01' E 031°56'1413.8
2015-Jun-27 00:24N 32°02' E 032°12'1213.9
2015-Jun-26 23:30N 32°02' E 032°27'2914.1
2015-Jun-26 21:26N 32°04' E 033°01'1214.1
2015-Jun-26 20:33N 32°05' E 033°16'4313.8
2015-Jun-26 17:26N 32°01' E 034°07'42 2.4
2015-Jun-26 00:04N 31°54' E 033°18'1720.9
2015-Jun-25 23:15N 31°51' E 032°59'1521.1
2015-Jun-25 22:33N 31°48' E 032°42'2421.2
2015-Jun-25 21:26N 31°46' E 032°14'1820.6
2015-Jun-25 20:34N 31°41' E 031°54'39010.1
2015-Jun-24 06:07N 36°33' E 026°41'  

Dump ship's entire track history